sensor_id;sensor_type;location;lat;lon;timestamp;pressure;altitude;pressure_sealevel;temperature;humidity
79663;BME280;69130;48.724;8.982;2023-07-29T00:00:15;102598.56;;;16.09;68.45
79663;BME280;69130;48.724;8.982;2023-07-29T00:02:41;102873.94;;;16.07;68.33
79663;BME280;69130;48.724;8.982;2023-07-29T00:05:07;102751.88;;;16.12;68.44
79663;BME280;69130;48.724;8.982;2023-07-29T00:07:33;103166.44;;;16.17;68.20
79663;BME280;69130;48.724;8.982;2023-07-29T00:09:58;101938.31;;;16.06;69.74
79663;BME280;69130;48.724;8.982;2023-07-29T00:12:23;101135.53;;;16.10;70.38
79663;BME280;69130;48.724;8.982;2023-07-29T00:14:49;101159.69;;;16.02;69.90
79663;BME280;69130;48.724;8.982;2023-07-29T00:17:14;101133.94;;;16.00;69.87
79663;BME280;69130;48.724;8.982;2023-07-29T00:19:39;101429.63;;;16.01;69.66
79663;BME280;69130;48.724;8.982;2023-07-29T00:22:05;101854.59;;;15.96;68.96
79663;BME280;69130;48.724;8.982;2023-07-29T00:24:30;101606.06;;;15.98;69.24
79663;BME280;69130;48.724;8.982;2023-07-29T00:26:56;101908.03;;;15.99;68.97
79663;BME280;69130;48.724;8.982;2023-07-29T00:29:21;102248.34;;;15.94;68.68
79663;BME280;69130;48.724;8.982;2023-07-29T00:31:46;102232.31;;;15.95;68.78
79663;BME280;69130;48.724;8.982;2023-07-29T00:34:12;102071.97;;;15.94;69.14
79663;BME280;69130;48.724;8.982;2023-07-29T00:36:42;101351.38;;;15.90;70.02
79663;BME280;69130;48.724;8.982;2023-07-29T00:39:07;101207.06;;;15.93;69.88
79663;BME280;69130;48.724;8.982;2023-07-29T00:41:33;101667.56;;;15.87;69.52
79663;BME280;69130;48.724;8.982;2023-07-29T00:43:58;101997.13;;;15.88;69.03
79663;BME280;69130;48.724;8.982;2023-07-29T00:46:24;102360.56;;;15.88;68.87
79663;BME280;69130;48.724;8.982;2023-07-29T00:48:49;102392.63;;;15.85;68.75
79663;BME280;69130;48.724;8.982;2023-07-29T00:51:15;102774.00;;;15.93;68.46
79663;BME280;69130;48.724;8.982;2023-07-29T00:53:40;101835.91;;;15.96;69.75
79663;BME280;69130;48.724;8.982;2023-07-29T00:56:06;102010.50;;;15.94;69.19
79663;BME280;69130;48.724;8.982;2023-07-29T00:58:31;102363.31;;;16.07;68.63
79663;BME280;69130;48.724;8.982;2023-07-29T01:00:57;102634.19;;;16.05;68.48
79663;BME280;69130;48.724;8.982;2023-07-29T01:03:22;102726.84;;;16.01;68.43
79663;BME280;69130;48.724;8.982;2023-07-29T01:12:24;101608.69;;;16.01;69.99
79663;BME280;69130;48.724;8.982;2023-07-29T01:15:11;101255.91;;;16.02;70.17
79663;BME280;69130;48.724;8.982;2023-07-29T01:17:46;101492.84;;;16.03;69.56
79663;BME280;69130;48.724;8.982;2023-07-29T01:20:17;102267.97;;;16.02;69.27
79663;BME280;69130;48.724;8.982;2023-07-29T01:22:45;101938.31;;;16.06;69.99
79663;BME280;69130;48.724;8.982;2023-07-29T01:25:11;101788.63;;;16.03;69.78
79663;BME280;69130;48.724;8.982;2023-07-29T01:27:37;102091.53;;;16.06;69.35
79663;BME280;69130;48.724;8.982;2023-07-29T01:30:03;101800.22;;;15.99;66.03
79663;BME280;69130;48.724;8.982;2023-07-29T01:35:03;102653.72;;;15.93;66.25
79663;BME280;69130;48.724;8.982;2023-07-29T01:37:32;101719.22;;;15.91;66.50
79663;BME280;69130;48.724;8.982;2023-07-29T01:39:59;102113.81;;;15.95;66.40
79663;BME280;69130;48.724;8.982;2023-07-29T01:42:26;102593.09;;;15.91;66.33
79663;BME280;69130;48.724;8.982;2023-07-29T01:44:52;102900.59;;;16.00;66.30
79663;BME280;69130;48.724;8.982;2023-07-29T01:47:17;102920.31;;;16.08;66.32
79663;BME280;69130;48.724;8.982;2023-07-29T01:49:43;103027.19;;;16.03;66.33
79663;BME280;69130;48.724;8.982;2023-07-29T01:52:08;102085.31;;;16.03;66.63
79663;BME280;69130;48.724;8.982;2023-07-29T01:54:34;101527.69;;;15.96;66.75
79663;BME280;69130;48.724;8.982;2023-07-29T01:56:59;101363.72;;;16.01;66.71
79663;BME280;69130;48.724;8.982;2023-07-29T01:59:24;101778.88;;;15.97;66.65
79663;BME280;69130;48.724;8.982;2023-07-29T02:01:50;101867.06;;;15.91;66.67
79663;BME280;69130;48.724;8.982;2023-07-29T02:04:15;101908.06;;;15.87;66.71
79663;BME280;69130;48.724;8.982;2023-07-29T02:06:40;101590.09;;;15.87;66.92
79663;BME280;69130;48.724;8.982;2023-07-29T02:09:06;101296.25;;;15.83;66.92
79663;BME280;69130;48.724;8.982;2023-07-29T02:11:31;101662.28;;;15.80;66.89
79663;BME280;69130;48.724;8.982;2023-07-29T02:13:57;101679.22;;;15.77;66.89
79663;BME280;69130;48.724;8.982;2023-07-29T02:16:23;102220.72;;;15.78;66.78
79663;BME280;69130;48.724;8.982;2023-07-29T02:18:49;102577.88;;;15.81;66.75
79663;BME280;69130;48.724;8.982;2023-07-29T02:21:17;102518.16;;;15.74;66.81
79663;BME280;69130;48.724;8.982;2023-07-29T02:23:42;102746.16;;;15.74;66.75
79663;BME280;69130;48.724;8.982;2023-07-29T02:26:08;101559.84;;;15.81;67.24
79663;BME280;69130;48.724;8.982;2023-07-29T02:28:33;101729.09;;;15.80;67.13
79663;BME280;69130;48.724;8.982;2023-07-29T02:31:19;101789.63;;;15.84;67.09
79663;BME280;69130;48.724;8.982;2023-07-29T02:33:45;102377.44;;;15.79;66.97
79663;BME280;69130;48.724;8.982;2023-07-29T02:36:11;102379.22;;;15.77;66.98
79663;BME280;69130;48.724;8.982;2023-07-29T02:38:37;102442.44;;;15.73;66.96
79663;BME280;69130;48.724;8.982;2023-07-29T02:41:03;101125.44;;;15.72;67.61
79663;BME280;69130;48.724;8.982;2023-07-29T02:43:28;101430.84;;;15.71;67.35
79663;BME280;69130;48.724;8.982;2023-07-29T02:45:53;101610.69;;;15.76;67.26
79663;BME280;69130;48.724;8.982;2023-07-29T02:48:19;102078.19;;;15.81;67.17
79663;BME280;69130;48.724;8.982;2023-07-29T02:50:45;102137.00;;;15.76;67.21
79663;BME280;69130;48.724;8.982;2023-07-29T02:53:10;102522.66;;;15.78;67.14
79663;BME280;69130;48.724;8.982;2023-07-29T02:55:39;102324.91;;;15.81;67.23
79663;BME280;69130;48.724;8.982;2023-07-29T02:58:05;101665.84;;;15.82;67.69
79663;BME280;69130;48.724;8.982;2023-07-29T03:00:31;100995.19;;;15.88;67.92
79663;BME280;69130;48.724;8.982;2023-07-29T03:02:57;100842.91;;;15.88;67.86
79663;BME280;69130;48.724;8.982;2023-07-29T03:05:22;101233.00;;;15.86;67.69
79663;BME280;69130;48.724;8.982;2023-07-29T03:07:47;101267.72;;;15.86;67.70
79663;BME280;69130;48.724;8.982;2023-07-29T03:10:13;100622.84;;;15.93;68.03
79663;BME280;69130;48.724;8.982;2023-07-29T03:12:39;101031.63;;;15.92;67.90
79663;BME280;69130;48.724;8.982;2023-07-29T03:15:05;101236.53;;;15.88;67.87
79663;BME280;69130;48.724;8.982;2023-07-29T03:17:30;101434.16;;;15.93;67.82
79663;BME280;69130;48.724;8.982;2023-07-29T03:19:56;101243.69;;;15.86;67.95
79663;BME280;69130;48.724;8.982;2023-07-29T03:22:21;101056.56;;;15.91;68.06
79663;BME280;69130;48.724;8.982;2023-07-29T03:24:46;100768.13;;;15.88;68.25
79663;BME280;69130;48.724;8.982;2023-07-29T03:27:12;101012.97;;;15.90;68.12
79663;BME280;69130;48.724;8.982;2023-07-29T03:29:37;101239.97;;;15.96;68.01
79663;BME280;69130;48.724;8.982;2023-07-29T03:32:02;101372.78;;;15.88;67.99
79663;BME280;69130;48.724;8.982;2023-07-29T03:34:28;101218.78;;;15.84;68.10
79663;BME280;69130;48.724;8.982;2023-07-29T03:36:53;101352.31;;;15.87;68.10
79663;BME280;69130;48.724;8.982;2023-07-29T03:39:19;100660.38;;;15.87;68.54
79663;BME280;69130;48.724;8.982;2023-07-29T03:41:44;100744.97;;;15.87;68.43
79663;BME280;69130;48.724;8.982;2023-07-29T03:44:09;100762.59;;;15.95;68.37
79663;BME280;69130;48.724;8.982;2023-07-29T03:46:35;100998.53;;;15.99;68.28
79663;BME280;69130;48.724;8.982;2023-07-29T03:49:00;100802.50;;;16.03;68.44
79663;BME280;69130;48.724;8.982;2023-07-29T03:51:26;101116.88;;;16.07;68.32
79663;BME280;69130;48.724;8.982;2023-07-29T03:53:51;100812.22;;;16.07;68.67
79663;BME280;69130;48.724;8.982;2023-07-29T03:56:16;100829.31;;;16.00;68.78
79663;BME280;69130;48.724;8.982;2023-07-29T03:58:43;100262.06;;;15.98;69.39
79663;BME280;69130;48.724;8.982;2023-07-29T04:01:09;100258.75;;;15.90;69.36
79663;BME280;69130;48.724;8.982;2023-07-29T04:03:34;100295.97;;;15.96;69.22
79663;BME280;69130;48.724;8.982;2023-07-29T04:06:00;100442.06;;;15.94;69.29
79663;BME280;69130;48.724;8.982;2023-07-29T04:08:25;100190.78;;;15.98;69.52
79663;BME280;69130;48.724;8.982;2023-07-29T04:10:51;100173.22;;;15.91;69.71
79663;BME280;69130;48.724;8.982;2023-07-29T04:13:16;100809.06;;;15.88;68.94
79663;BME280;69130;48.724;8.982;2023-07-29T04:15:42;100838.47;;;15.88;68.89
79663;BME280;69130;48.724;8.982;2023-07-29T04:18:07;101037.84;;;15.94;68.83
79663;BME280;69130;48.724;8.982;2023-07-29T04:20:33;100153.81;;;15.86;69.61
79663;BME280;69130;48.724;8.982;2023-07-29T04:22:59;100548.22;;;15.86;69.20
79663;BME280;69130;48.724;8.982;2023-07-29T04:25:24;100622.94;;;15.89;69.09
79663;BME280;69130;48.724;8.982;2023-07-29T04:27:50;100934.63;;;15.87;68.81
79663;BME280;69130;48.724;8.982;2023-07-29T04:30:15;100388.78;;;15.88;68.87
79663;BME280;69130;48.724;8.982;2023-07-29T04:32:40;100777.03;;;15.87;68.60
79663;BME280;69130;48.724;8.982;2023-07-29T04:35:08;99882.19;;;15.88;69.52
79663;BME280;69130;48.724;8.982;2023-07-29T04:37:33;99988.28;;;15.83;69.23
79663;BME280;69130;48.724;8.982;2023-07-29T04:39:59;100405.88;;;15.82;68.94
79663;BME280;69130;48.724;8.982;2023-07-29T04:42:24;100612.44;;;15.81;68.79
79663;BME280;69130;48.724;8.982;2023-07-29T04:44:50;100975.66;;;15.83;68.62
79663;BME280;69130;48.724;8.982;2023-07-29T04:47:15;101294.47;;;15.83;68.45
79663;BME280;69130;48.724;8.982;2023-07-29T04:49:41;101509.00;;;15.91;68.29
79663;BME280;69130;48.724;8.982;2023-07-29T04:52:06;101152.00;;;15.81;68.68
79663;BME280;69130;48.724;8.982;2023-07-29T04:54:32;100134.28;;;15.84;69.52
79663;BME280;69130;48.724;8.982;2023-07-29T04:56:57;99884.88;;;15.87;69.83
79663;BME280;69130;48.724;8.982;2023-07-29T04:59:23;100509.84;;;15.90;68.80
79663;BME280;69130;48.724;8.982;2023-07-29T05:01:48;100663.84;;;15.91;68.55
79663;BME280;69130;48.724;8.982;2023-07-29T05:04:14;101051.16;;;15.95;68.28
79663;BME280;69130;48.724;8.982;2023-07-29T05:06:39;100470.56;;;15.93;69.14
79663;BME280;69130;48.724;8.982;2023-07-29T05:09:15;100147.72;;;16.09;69.13
79663;BME280;69130;48.724;8.982;2023-07-29T05:11:42;100964.63;;;16.04;68.22
79663;BME280;69130;48.724;8.982;2023-07-29T05:14:08;100887.03;;;16.07;68.25
79663;BME280;69130;48.724;8.982;2023-07-29T05:16:34;101279.94;;;16.02;68.03
79663;BME280;69130;48.724;8.982;2023-07-29T05:19:00;101375.22;;;16.06;68.07
79663;BME280;69130;48.724;8.982;2023-07-29T05:21:25;101653.22;;;16.03;68.05
79663;BME280;69130;48.724;8.982;2023-07-29T05:23:51;101804.53;;;16.24;67.99
79663;BME280;69130;48.724;8.982;2023-07-29T05:26:16;101942.69;;;16.19;67.93
79663;BME280;69130;48.724;8.982;2023-07-29T05:28:41;100596.16;;;16.27;69.06
79663;BME280;69130;48.724;8.982;2023-07-29T05:31:07;100105.25;;;16.27;69.19
79663;BME280;69130;48.724;8.982;2023-07-29T05:33:32;100181.75;;;16.30;68.97
79663;BME280;69130;48.724;8.982;2023-07-29T05:35:57;100607.50;;;16.36;68.60
79663;BME280;69130;48.724;8.982;2023-07-29T05:38:23;100539.50;;;16.46;68.60
79663;BME280;69130;48.724;8.982;2023-07-29T05:40:48;100836.34;;;16.45;68.55
79663;BME280;69130;48.724;8.982;2023-07-29T05:43:14;99961.66;;;16.57;69.11
79663;BME280;69130;48.724;8.982;2023-07-29T05:45:40;100390.22;;;16.62;68.74
79663;BME280;69130;48.724;8.982;2023-07-29T05:48:05;100562.16;;;16.67;68.63
79663;BME280;69130;48.724;8.982;2023-07-29T05:50:31;100920.56;;;16.66;68.47
79663;BME280;69130;48.724;8.982;2023-07-29T05:52:56;100902.38;;;16.81;68.49
79663;BME280;69130;48.724;8.982;2023-07-29T05:55:22;101036.97;;;16.86;68.49
79663;BME280;69130;48.724;8.982;2023-07-29T05:57:47;100195.66;;;16.95;69.17
79663;BME280;69130;48.724;8.982;2023-07-29T06:00:13;100209.53;;;17.06;68.91
79663;BME280;69130;48.724;8.982;2023-07-29T06:02:38;100503.03;;;17.05;68.79
79663;BME280;69130;48.724;8.982;2023-07-29T06:05:06;100702.59;;;17.15;68.63
79663;BME280;69130;48.724;8.982;2023-07-29T06:07:31;100504.38;;;17.20;68.71
79663;BME280;69130;48.724;8.982;2023-07-29T06:09:59;100157.97;;;17.25;69.04
79663;BME280;69130;48.724;8.982;2023-07-29T06:12:24;99774.47;;;17.42;69.34
79663;BME280;69130;48.724;8.982;2023-07-29T06:14:50;99676.81;;;17.51;69.28
79663;BME280;69130;48.724;8.982;2023-07-29T06:17:15;99960.56;;;17.54;69.14
79663;BME280;69130;48.724;8.982;2023-07-29T06:19:40;100057.16;;;17.49;69.14
79663;BME280;69130;48.724;8.982;2023-07-29T06:22:06;99832.03;;;17.54;69.36
79663;BME280;69130;48.724;8.982;2023-07-29T06:24:31;99809.66;;;17.55;69.46
79663;BME280;69130;48.724;8.982;2023-07-29T06:26:57;100071.19;;;17.56;69.23
79663;BME280;69130;48.724;8.982;2023-07-29T06:29:23;100230.69;;;17.63;69.13
79663;BME280;69130;48.724;8.982;2023-07-29T06:31:48;100080.03;;;17.58;69.39
79663;BME280;69130;48.724;8.982;2023-07-29T06:34:13;100210.22;;;17.62;69.34
79663;BME280;69130;48.724;8.982;2023-07-29T06:36:39;100312.81;;;17.64;69.28
79663;BME280;69130;48.724;8.982;2023-07-29T06:39:04;99918.47;;;17.57;69.69
79663;BME280;69130;48.724;8.982;2023-07-29T06:41:30;99708.03;;;17.52;69.91
79663;BME280;69130;48.724;8.982;2023-07-29T06:43:55;99787.97;;;17.61;69.82
79663;BME280;69130;48.724;8.982;2023-07-29T06:46:21;99743.59;;;17.55;69.95
79663;BME280;69130;48.724;8.982;2023-07-29T06:48:46;99729.78;;;17.44;70.09
79663;BME280;69130;48.724;8.982;2023-07-29T06:51:12;99971.50;;;17.48;69.99
79663;BME280;69130;48.724;8.982;2023-07-29T06:53:37;99783.09;;;17.50;70.14
79663;BME280;69130;48.724;8.982;2023-07-29T06:56:03;99604.47;;;17.52;70.42
79663;BME280;69130;48.724;8.982;2023-07-29T06:58:29;99765.19;;;17.51;70.20
79663;BME280;69130;48.724;8.982;2023-07-29T07:00:55;99770.34;;;17.55;70.31
79663;BME280;69130;48.724;8.982;2023-07-29T07:03:20;99830.41;;;17.50;70.40
79663;BME280;69130;48.724;8.982;2023-07-29T07:05:45;99983.19;;;17.45;70.45
79663;BME280;69130;48.724;8.982;2023-07-29T07:08:11;99897.41;;;17.48;70.52
79663;BME280;69130;48.724;8.982;2023-07-29T07:10:36;99841.06;;;17.51;70.66
79663;BME280;69130;48.724;8.982;2023-07-29T07:13:02;99880.22;;;17.54;70.53
79663;BME280;69130;48.724;8.982;2023-07-29T07:15:27;99833.63;;;17.58;70.87
79663;BME280;69130;48.724;8.982;2023-07-29T07:17:52;100131.16;;;17.52;70.58
79663;BME280;69130;48.724;8.982;2023-07-29T07:20:18;100229.28;;;17.53;70.63
79663;BME280;69130;48.724;8.982;2023-07-29T07:22:43;99995.69;;;17.44;70.90
79663;BME280;69130;48.724;8.982;2023-07-29T07:25:09;99809.56;;;17.56;70.92
79663;BME280;69130;48.724;8.982;2023-07-29T07:27:34;99589.69;;;17.62;70.96
79663;BME280;69130;48.724;8.982;2023-07-29T07:29:59;99513.56;;;17.68;71.23
79663;BME280;69130;48.724;8.982;2023-07-29T07:32:25;99569.81;;;17.68;71.18
79663;BME280;69130;48.724;8.982;2023-07-29T07:34:51;99676.28;;;17.63;71.29
79663;BME280;69130;48.724;8.982;2023-07-29T07:37:16;99448.56;;;17.64;71.41
79663;BME280;69130;48.724;8.982;2023-07-29T07:39:44;99653.78;;;17.67;71.41
79663;BME280;69130;48.724;8.982;2023-07-29T07:42:10;99529.97;;;17.79;71.51
79663;BME280;69130;48.724;8.982;2023-07-29T07:44:35;99188.09;;;17.93;71.83
79663;BME280;69130;48.724;8.982;2023-07-29T07:47:06;99309.16;;;18.01;71.73
79663;BME280;69130;48.724;8.982;2023-07-29T07:49:34;99292.50;;;18.27;71.72
79663;BME280;69130;48.724;8.982;2023-07-29T07:52:03;99271.47;;;18.20;71.89
79663;BME280;69130;48.724;8.982;2023-07-29T07:54:31;99609.84;;;18.44;71.68
79663;BME280;69130;48.724;8.982;2023-07-29T07:56:58;99232.97;;;18.54;72.07
79663;BME280;69130;48.724;8.982;2023-07-29T07:59:27;99106.66;;;18.74;69.18
79663;BME280;69130;48.724;8.982;2023-07-29T08:01:52;99261.03;;;18.64;69.22
79663;BME280;69130;48.724;8.982;2023-07-29T08:04:18;99077.59;;;18.66;69.36
79663;BME280;69130;48.724;8.982;2023-07-29T08:06:43;98946.16;;;19.23;69.35
79663;BME280;69130;48.724;8.982;2023-07-29T08:09:11;98961.22;;;18.97;69.56
79663;BME280;69130;48.724;8.982;2023-07-29T08:11:36;98989.22;;;19.07;69.62
79663;BME280;69130;48.724;8.982;2023-07-29T08:14:02;98863.84;;;19.09;69.89
79663;BME280;69130;48.724;8.982;2023-07-29T08:16:27;98887.34;;;19.05;70.00
79663;BME280;69130;48.724;8.982;2023-07-29T08:18:53;98947.63;;;19.00;70.05
79663;BME280;69130;48.724;8.982;2023-07-29T08:21:18;98774.44;;;18.94;70.22
79663;BME280;69130;48.724;8.982;2023-07-29T08:23:43;98781.94;;;18.89;70.73
79663;BME280;69130;48.724;8.982;2023-07-29T08:26:09;98768.25;;;19.06;70.68
79663;BME280;69130;48.724;8.982;2023-07-29T08:30:57;98328.44;;;19.27;70.43
79663;BME280;69130;48.724;8.982;2023-07-29T08:33:23;98338.41;;;19.25;70.72
79663;BME280;69130;48.724;8.982;2023-07-29T08:35:49;98236.09;;;19.30;71.18
79663;BME280;69130;48.724;8.982;2023-07-29T08:38:14;98131.44;;;19.41;71.44
79663;BME280;69130;48.724;8.982;2023-07-29T08:43:29;97910.13;;;19.76;71.97
79663;BME280;69130;48.724;8.982;2023-07-29T08:45:57;97938.78;;;19.87;71.94
79663;BME280;69130;48.724;8.982;2023-07-29T08:48:32;97836.28;;;20.02;72.37
79663;BME280;69130;48.724;8.982;2023-07-29T08:50:59;97688.78;;;20.09;72.75
79663;BME280;69130;48.724;8.982;2023-07-29T08:53:26;97640.75;;;19.95;73.12
79663;BME280;69130;48.724;8.982;2023-07-29T08:55:53;97583.34;;;19.86;73.44
79663;BME280;69130;48.724;8.982;2023-07-29T08:58:20;97586.31;;;19.93;73.58
79663;BME280;69130;48.724;8.982;2023-07-29T09:00:47;97506.88;;;19.90;74.08
79663;BME280;69130;48.724;8.982;2023-07-29T09:03:13;97486.97;;;20.12;74.25
79663;BME280;69130;48.724;8.982;2023-07-29T09:05:39;97414.75;;;20.28;74.71
79663;BME280;69130;48.724;8.982;2023-07-29T09:08:04;97371.88;;;21.11;74.78
79663;BME280;69130;48.724;8.982;2023-07-29T09:10:30;97268.94;;;21.89;75.21
79663;BME280;69130;48.724;8.982;2023-07-29T09:12:59;97101.50;;;22.10;76.33
79663;BME280;69130;48.724;8.982;2023-07-29T09:15:30;96722.53;;;22.55;78.03
79663;BME280;69130;48.724;8.982;2023-07-29T09:17:57;96484.84;;;22.59;80.06
79663;BME280;69130;48.724;8.982;2023-07-29T09:20:26;96260.28;;;22.56;82.06
79663;BME280;69130;48.724;8.982;2023-07-29T09:22:58;96030.06;;;21.99;84.48
79663;BME280;69130;48.724;8.982;2023-07-29T09:25:26;95815.84;;;21.74;85.95
79663;BME280;69130;48.724;8.982;2023-07-29T09:27:51;95698.97;;;21.54;87.66
79663;BME280;69130;48.724;8.982;2023-07-29T09:30:17;95609.59;;;21.23;89.23
79663;BME280;69130;48.724;8.982;2023-07-29T09:32:43;95581.13;;;21.14;90.41
79663;BME280;69130;48.724;8.982;2023-07-29T09:35:12;95555.25;;;21.13;90.32
79663;BME280;69130;48.724;8.982;2023-07-29T09:37:38;95579.47;;;21.34;90.19
79663;BME280;69130;48.724;8.982;2023-07-29T09:40:12;95572.69;;;22.08;90.10
79663;BME280;69130;48.724;8.982;2023-07-29T09:42:38;95523.06;;;21.68;92.01
79663;BME280;69130;48.724;8.982;2023-07-29T09:45:04;95450.69;;;21.58;93.02
79663;BME280;69130;48.724;8.982;2023-07-29T09:47:30;95430.16;;;21.57;93.29
79663;BME280;69130;48.724;8.982;2023-07-29T09:49:55;95424.59;;;22.27;92.93
79663;BME280;69130;48.724;8.982;2023-07-29T09:52:22;95313.97;;;22.94;94.25
79663;BME280;69130;48.724;8.982;2023-07-29T09:54:48;95006.19;;;23.33;97.61
79663;BME280;69130;48.724;8.982;2023-07-29T09:57:15;95048.09;;;22.92;100.00
79663;BME280;69130;48.724;8.982;2023-07-29T09:59:41;95139.59;;;23.00;100.00
79663;BME280;69130;48.724;8.982;2023-07-29T10:02:14;95093.13;;;22.98;100.00
79663;BME280;69130;48.724;8.982;2023-07-29T10:04:43;95098.44;;;23.17;100.00
79663;BME280;69130;48.724;8.982;2023-07-29T10:07:11;95104.44;;;23.19;100.00
79663;BME280;69130;48.724;8.982;2023-07-29T10:09:40;95100.69;;;23.20;100.00
79663;BME280;69130;48.724;8.982;2023-07-29T10:12:06;95131.03;;;23.16;100.00
79663;BME280;69130;48.724;8.982;2023-07-29T10:14:33;95145.69;;;22.56;100.00
79663;BME280;69130;48.724;8.982;2023-07-29T10:16:59;95249.81;;;22.50;100.00
79663;BME280;69130;48.724;8.982;2023-07-29T10:19:25;95263.94;;;22.52;100.00
79663;BME280;69130;48.724;8.982;2023-07-29T10:21:52;95263.69;;;22.47;100.00
79663;BME280;69130;48.724;8.982;2023-07-29T10:24:24;95279.72;;;22.82;100.00
79663;BME280;69130;48.724;8.982;2023-07-29T10:26:57;95277.81;;;22.49;100.00
79663;BME280;69130;48.724;8.982;2023-07-29T10:29:23;95283.75;;;22.06;100.00
79663;BME280;69130;48.724;8.982;2023-07-29T10:31:52;95282.69;;;22.00;100.00
79663;BME280;69130;48.724;8.982;2023-07-29T10:34:18;95283.50;;;21.94;100.00
79663;BME280;69130;48.724;8.982;2023-07-29T10:36:45;95279.66;;;22.23;100.00
79663;BME280;69130;48.724;8.982;2023-07-29T10:39:12;95285.25;;;22.21;100.00
79663;BME280;69130;48.724;8.982;2023-07-29T10:41:57;95286.50;;;22.38;100.00
79663;BME280;69130;48.724;8.982;2023-07-29T10:47:35;95273.53;;;23.71;100.00
79663;BME280;69130;48.724;8.982;2023-07-29T10:50:00;94757.13;;;23.92;100.00
79663;BME280;69130;48.724;8.982;2023-07-29T10:55:00;94759.91;;;23.86;100.00
79663;BME280;69130;48.724;8.982;2023-07-29T10:57:39;94774.84;;;23.52;100.00
79663;BME280;69130;48.724;8.982;2023-07-29T11:00:06;94788.22;;;23.47;100.00
79663;BME280;69130;48.724;8.982;2023-07-29T11:02:35;94812.19;;;23.37;100.00
79663;BME280;69130;48.724;8.982;2023-07-29T11:05:05;94814.00;;;23.18;100.00
79663;BME280;69130;48.724;8.982;2023-07-29T11:07:43;94823.22;;;22.86;100.00
79663;BME280;69130;48.724;8.982;2023-07-29T11:10:09;94819.94;;;22.78;100.00
79663;BME280;69130;48.724;8.982;2023-07-29T11:12:41;94824.34;;;22.97;100.00
79663;BME280;69130;48.724;8.982;2023-07-29T11:17:39;94827.03;;;22.97;100.00
79663;BME280;69130;48.724;8.982;2023-07-29T11:20:05;94823.78;;;22.64;100.00
79663;BME280;69130;48.724;8.982;2023-07-29T11:22:30;94835.53;;;22.76;100.00
79663;BME280;69130;48.724;8.982;2023-07-29T11:24:56;94833.69;;;22.70;100.00
79663;BME280;69130;48.724;8.982;2023-07-29T11:27:21;94827.09;;;22.66;100.00
79663;BME280;69130;48.724;8.982;2023-07-29T11:29:48;94819.34;;;22.76;100.00
79663;BME280;69130;48.724;8.982;2023-07-29T11:32:13;94816.22;;;22.79;100.00
79663;BME280;69130;48.724;8.982;2023-07-29T11:34:40;94821.94;;;22.89;100.00
79663;BME280;69130;48.724;8.982;2023-07-29T11:37:06;94820.38;;;22.99;100.00
79663;BME280;69130;48.724;8.982;2023-07-29T11:39:41;94819.56;;;22.99;100.00
79663;BME280;69130;48.724;8.982;2023-07-29T11:42:11;94821.97;;;23.07;100.00
79663;BME280;69130;48.724;8.982;2023-07-29T11:44:37;94826.69;;;23.18;100.00
79663;BME280;69130;48.724;8.982;2023-07-29T11:47:08;94840.91;;;23.31;100.00
79663;BME280;69130;48.724;8.982;2023-07-29T11:49:34;94847.28;;;23.37;100.00
79663;BME280;69130;48.724;8.982;2023-07-29T11:52:01;94878.09;;;23.72;100.00
79663;BME280;69130;48.724;8.982;2023-07-29T11:54:27;94897.56;;;23.99;100.00
79663;BME280;69130;48.724;8.982;2023-07-29T11:56:53;94991.63;;;24.15;100.00
79663;BME280;69130;48.724;8.982;2023-07-29T11:59:19;95062.53;;;24.78;100.00
79663;BME280;69130;48.724;8.982;2023-07-29T12:01:45;95093.03;;;24.42;100.00
79663;BME280;69130;48.724;8.982;2023-07-29T12:04:10;95119.47;;;24.15;100.00
79663;BME280;69130;48.724;8.982;2023-07-29T12:06:37;95129.63;;;23.89;100.00
79663;BME280;69130;48.724;8.982;2023-07-29T12:09:03;95112.81;;;23.87;100.00
79663;BME280;69130;48.724;8.982;2023-07-29T12:11:28;95077.56;;;24.06;100.00
79663;BME280;69130;48.724;8.982;2023-07-29T12:13:54;95076.41;;;24.20;100.00
79663;BME280;69130;48.724;8.982;2023-07-29T12:16:19;95093.53;;;24.08;100.00
79663;BME280;69130;48.724;8.982;2023-07-29T12:18:45;95079.16;;;24.14;100.00
79663;BME280;69130;48.724;8.982;2023-07-29T12:21:10;95103.66;;;24.19;100.00
79663;BME280;69130;48.724;8.982;2023-07-29T12:23:36;95117.97;;;24.44;100.00
79663;BME280;69130;48.724;8.982;2023-07-29T12:26:01;95102.09;;;25.27;100.00
79663;BME280;69130;48.724;8.982;2023-07-29T12:28:27;95087.63;;;25.80;100.00
79663;BME280;69130;48.724;8.982;2023-07-29T12:30:56;95139.91;;;25.69;100.00
79663;BME280;69130;48.724;8.982;2023-07-29T12:33:35;95179.41;;;25.47;100.00
79663;BME280;69130;48.724;8.982;2023-07-29T12:36:01;95196.22;;;25.49;100.00
79663;BME280;69130;48.724;8.982;2023-07-29T12:38:27;95216.19;;;25.55;100.00
79663;BME280;69130;48.724;8.982;2023-07-29T12:40:52;95229.44;;;25.20;100.00
79663;BME280;69130;48.724;8.982;2023-07-29T12:43:18;95214.88;;;25.57;100.00
79663;BME280;69130;48.724;8.982;2023-07-29T12:45:43;95241.31;;;25.01;100.00
79663;BME280;69130;48.724;8.982;2023-07-29T12:48:09;95245.38;;;25.10;100.00
79663;BME280;69130;48.724;8.982;2023-07-29T12:50:36;95243.53;;;24.86;100.00
79663;BME280;69130;48.724;8.982;2023-07-29T12:53:01;95250.97;;;24.90;100.00
79663;BME280;69130;48.724;8.982;2023-07-29T12:55:26;95215.09;;;25.20;100.00
79663;BME280;69130;48.724;8.982;2023-07-29T12:57:52;95220.53;;;24.95;100.00
79663;BME280;69130;48.724;8.982;2023-07-29T13:00:17;95226.09;;;24.82;100.00
79663;BME280;69130;48.724;8.982;2023-07-29T13:02:43;95230.34;;;25.14;100.00
79663;BME280;69130;48.724;8.982;2023-07-29T13:05:10;95236.78;;;24.95;100.00
79663;BME280;69130;48.724;8.982;2023-07-29T13:07:37;95228.19;;;24.80;100.00
79663;BME280;69130;48.724;8.982;2023-07-29T13:10:03;95235.09;;;24.76;100.00